createdAt,value
2022-10-31T00:00:34.769Z,99173.28
2022-10-31T00:02:42.369Z,99176.66
2022-10-31T00:04:47.766Z,99173.34
2022-10-31T00:06:52.744Z,99169.13
2022-10-31T00:09:01.056Z,99169.97
2022-10-31T00:11:06.228Z,99173.34
2022-10-31T00:13:11.811Z,99174.19
2022-10-31T00:15:16.984Z,99171.66
2022-10-31T00:17:22.136Z,99179.88
2022-10-31T00:19:29.916Z,99184.97
2022-10-31T00:21:36.055Z,99176.50
2022-10-31T00:35:02.846Z,99176.66
2022-10-31T00:37:07.974Z,99176.59
2022-10-31T00:39:14.293Z,99174.97
2022-10-31T00:41:21.673Z,99174.94
2022-10-31T00:43:27.089Z,99174.94
2022-10-31T00:45:32.028Z,99179.19
2022-10-31T00:47:37.358Z,99185.03
2022-10-31T00:49:42.780Z,99189.22
2022-10-31T00:51:50.656Z,99183.38
2022-10-31T00:53:56.060Z,99189.19
2022-10-31T00:56:01.971Z,99195.03
2022-10-31T00:58:04.883Z,99189.16
2022-10-31T01:00:13.844Z,99206.75
2022-10-31T01:02:20.434Z,99206.78
2022-10-31T01:04:25.726Z,99211.00
2022-10-31T01:06:31.048Z,99200.94
2022-10-31T01:08:40.777Z,99205.91
2022-10-31T01:10:45.716Z,99208.38
2022-10-31T01:12:52.675Z,99207.63
2022-10-31T01:15:01.813Z,99206.81
2022-10-31T01:17:06.768Z,99210.16
2022-10-31T01:19:12.123Z,99208.50
2022-10-31T01:21:19.945Z,99202.66
2022-10-31T01:43:45.156Z,99213.59
2022-10-31T01:45:57.306Z,99226.97
2022-10-31T01:48:02.664Z,99211.94
2022-10-31T01:50:17.139Z,99217.03
2022-10-31T01:52:27.975Z,99219.56
2022-10-31T01:54:38.756Z,99221.28
2022-10-31T01:56:47.831Z,99220.50
2022-10-31T01:58:58.107Z,99218.88
2022-10-31T02:01:07.930Z,99221.34
2022-10-31T02:03:15.194Z,99213.84
2022-10-31T02:05:23.585Z,99216.38
2022-10-31T02:07:35.076Z,99213.03
2022-10-31T02:09:41.270Z,99214.72
2022-10-31T02:11:48.023Z,99219.72
2022-10-31T02:13:55.712Z,99213.88
2022-10-31T02:16:02.902Z,99217.22
2022-10-31T02:18:09.016Z,99210.56
2022-10-31T02:20:22.019Z,99210.59
2022-10-31T02:22:34.016Z,99214.75
2022-10-31T02:24:52.431Z,99214.78
2022-10-31T02:27:48.876Z,99216.41
2022-10-31T02:30:14.755Z,99217.22
2022-10-31T02:32:31.320Z,99216.38
2022-10-31T02:34:44.663Z,99222.22
2022-10-31T02:36:55.988Z,99222.25
2022-10-31T02:39:15.533Z,99210.63
2022-10-31T02:41:30.986Z,99217.28
2022-10-31T02:43:52.458Z,99214.75
2022-10-31T02:46:08.096Z,99218.09
2022-10-31T02:48:23.119Z,99223.13
2022-10-31T02:50:34.989Z,99220.59
2022-10-31T02:52:41.885Z,99222.22
2022-10-31T02:54:48.911Z,99212.16
2022-10-31T02:56:57.139Z,99216.31
2022-10-31T02:59:07.684Z,99213.81
2022-10-31T03:01:38.208Z,99217.19
2022-10-31T03:04:13.846Z,99218.88
2022-10-31T03:06:29.771Z,99221.34
2022-10-31T03:08:41.317Z,99216.34
2022-10-31T03:10:53.976Z,99213.03
2022-10-31T03:13:09.608Z,99205.50
2022-10-31T03:15:25.230Z,99211.34
2022-10-31T03:17:39.488Z,99211.41
2022-10-31T03:19:52.763Z,99218.88
2022-10-31T03:21:59.735Z,99220.53
2022-10-31T03:24:07.616Z,99214.69
2022-10-31T03:26:17.766Z,99206.34
2022-10-31T03:28:30.822Z,99209.72
2022-10-31T03:30:39.780Z,99208.88
2022-10-31T03:32:50.550Z,99200.53
2022-10-31T03:35:03.076Z,99212.22
2022-10-31T03:37:14.907Z,99205.59
2022-10-31T03:39:24.469Z,99206.44
2022-10-31T03:41:35.438Z,99203.13
2022-10-31T03:43:51.343Z,99207.28
2022-10-31T03:45:56.784Z,99198.94
2022-10-31T03:48:03.395Z,99203.94
2022-10-31T03:50:17.573Z,99204.72
2022-10-31T03:52:32.404Z,99212.25
2022-10-31T03:54:45.343Z,99202.28
2022-10-31T03:56:54.393Z,99203.94
2022-10-31T03:59:08.182Z,99208.13
2022-10-31T04:01:19.178Z,99212.34
2022-10-31T04:03:29.929Z,99196.47
2022-10-31T04:05:42.192Z,99200.59
2022-10-31T04:07:52.395Z,99196.41
2022-10-31T04:09:59.176Z,99207.22
2022-10-31T04:12:08.005Z,99194.75
2022-10-31T04:14:36.507Z,99202.25
2022-10-31T04:16:43.098Z,99194.75
2022-10-31T04:18:48.328Z,99194.72
2022-10-31T04:21:05.010Z,99198.09
2022-10-31T04:23:23.023Z,99194.72
2022-10-31T04:25:29.124Z,99199.72
2022-10-31T04:27:34.157Z,99192.19
2022-10-31T04:29:39.201Z,99191.31
2022-10-31T04:31:44.241Z,99192.16
2022-10-31T04:33:49.657Z,99193.00
2022-10-31T04:35:57.397Z,99195.53
2022-10-31T04:38:02.944Z,99197.19
2022-10-31T04:40:10.653Z,99191.38
2022-10-31T04:42:36.238Z,99195.56
2022-10-31T04:44:43.050Z,99198.06
2022-10-31T04:46:48.420Z,99192.25
2022-10-31T04:48:53.587Z,99188.09
2022-10-31T04:51:06.424Z,99192.22
2022-10-31T04:53:12.161Z,99188.91
2022-10-31T04:55:36.381Z,99192.28
2022-10-31T04:57:58.381Z,99190.63
2022-10-31T05:00:05.477Z,99185.66
2022-10-31T05:02:12.701Z,99185.66
2022-10-31T05:04:25.823Z,99189.81
2022-10-31T05:06:33.652Z,99180.66
2022-10-31T05:08:38.685Z,99184.00
2022-10-31T05:10:46.004Z,99184.88
2022-10-31T05:12:52.704Z,99184.91
2022-10-31T05:15:16.977Z,99180.69
2022-10-31T05:17:40.572Z,99177.38
2022-10-31T05:20:00.951Z,99179.06
2022-10-31T05:22:47.155Z,99179.03
2022-10-31T05:24:52.572Z,99177.38
2022-10-31T05:26:57.632Z,99172.41
2022-10-31T05:29:03.354Z,99175.72
2022-10-31T05:31:08.730Z,99175.72
2022-10-31T05:33:13.807Z,99170.72
2022-10-31T05:35:44.874Z,99169.91
2022-10-31T05:38:05.490Z,99170.75
2022-10-31T05:40:15.297Z,99167.41
2022-10-31T05:42:21.280Z,99170.72
2022-10-31T05:44:27.335Z,99176.56
2022-10-31T05:46:58.493Z,99182.38
2022-10-31T05:49:23.791Z,99185.72
2022-10-31T05:51:49.068Z,99180.72
2022-10-31T05:53:56.887Z,99188.22
2022-10-31T05:56:03.378Z,99195.69
2022-10-31T05:58:08.452Z,99190.72
2022-10-31T06:00:17.227Z,99198.19
2022-10-31T06:02:27.937Z,99192.38
2022-10-31T06:04:52.166Z,99195.72
2022-10-31T06:06:57.873Z,99195.72
2022-10-31T06:09:06.277Z,99199.84
2022-10-31T06:11:13.856Z,99204.00
2022-10-31T06:23:01.180Z,99207.88
2022-10-31T06:25:10.427Z,99202.03
2022-10-31T06:27:19.604Z,99197.75
2022-10-31T06:29:24.864Z,99206.03
2022-10-31T06:31:39.957Z,99205.13
2022-10-31T06:33:45.613Z,99212.63
2022-10-31T06:35:51.272Z,99210.16
2022-10-31T06:37:57.523Z,99220.22
2022-10-31T06:40:23.123Z,99222.75
2022-10-31T06:42:51.042Z,99220.28
2022-10-31T06:44:56.696Z,99217.75
2022-10-31T06:47:24.526Z,99225.25
2022-10-31T06:49:52.425Z,99228.59
2022-10-31T06:52:00.807Z,99225.22
2022-10-31T06:54:06.096Z,99230.16
2022-10-31T06:56:13.831Z,99227.63
2022-10-31T06:58:24.101Z,99230.06
2022-10-31T07:00:33.712Z,99224.22
2022-10-31T07:02:44.568Z,99224.16
2022-10-31T07:04:49.987Z,99221.56
2022-10-31T07:06:56.750Z,99229.03
2022-10-31T07:09:02.467Z,99233.16
2022-10-31T07:11:08.547Z,99238.09
2022-10-31T07:13:18.090Z,99233.03
2022-10-31T07:15:32.904Z,99228.84
2022-10-31T07:17:37.916Z,99222.91
2022-10-31T07:19:42.987Z,99221.19
2022-10-31T07:21:49.459Z,99224.56
2022-10-31T07:23:54.569Z,99227.81
2022-10-31T07:26:19.883Z,99234.41
2022-10-31T07:28:30.215Z,99232.66
2022-10-31T07:30:35.780Z,99229.25
2022-10-31T07:32:44.053Z,99234.97
2022-10-31T07:34:51.522Z,99224.66
2022-10-31T07:37:01.395Z,99222.75
2022-10-31T07:39:06.891Z,99230.97
2022-10-31T07:41:13.746Z,99234.97
2022-10-31T07:43:22.439Z,99229.81
2022-10-31T07:45:59.135Z,99226.25
2022-10-31T07:48:27.044Z,99229.28
2022-10-31T07:50:50.552Z,99229.69
2022-10-31T07:53:03.522Z,99233.44
2022-10-31T07:55:27.769Z,99237.41
2022-10-31T07:57:37.622Z,99230.50
2022-10-31T07:59:42.646Z,99228.56
2022-10-31T08:01:52.426Z,99224.44
2022-10-31T08:04:09.718Z,99226.56
2022-10-31T08:06:37.915Z,99217.94
2022-10-31T08:08:54.618Z,99221.09
2022-10-31T08:11:02.392Z,99215.94
2022-10-31T08:13:12.264Z,99215.84
2022-10-31T08:15:20.542Z,99215.59
2022-10-31T08:17:29.936Z,99222.25
2022-10-31T08:19:38.257Z,99211.75
2022-10-31T08:21:43.353Z,99220.94
2022-10-31T08:23:49.183Z,99219.84
2022-10-31T08:25:54.226Z,99217.00
2022-10-31T08:28:01.119Z,99214.97
2022-10-31T08:30:07.529Z,99210.94
2022-10-31T08:32:15.476Z,99210.13
2022-10-31T08:34:41.466Z,99212.28
2022-10-31T08:37:04.880Z,99212.13
2022-10-31T08:39:18.475Z,99210.81
2022-10-31T08:41:23.512Z,99207.09
2022-10-31T08:43:28.562Z,99202.69
2022-10-31T08:45:35.979Z,99202.00
2022-10-31T08:47:43.359Z,99204.06
2022-10-31T08:49:51.951Z,99197.53
2022-10-31T08:51:56.896Z,99210.41
2022-10-31T08:54:04.843Z,99208.16
2022-10-31T08:56:35.637Z,99196.47
2022-10-31T08:58:43.903Z,99192.53
2022-10-31T09:00:52.190Z,99199.25
2022-10-31T09:03:01.114Z,99191.72
2022-10-31T09:05:12.112Z,99199.59
2022-10-31T09:07:21.215Z,99194.19
2022-10-31T09:09:26.806Z,99184.69
2022-10-31T09:11:33.902Z,99188.19
2022-10-31T09:13:44.523Z,99187.50
2022-10-31T09:16:10.979Z,99187.19
2022-10-31T09:18:20.150Z,99183.16
2022-10-31T09:20:38.229Z,99181.56
2022-10-31T09:22:43.230Z,99187.50
2022-10-31T09:24:48.277Z,99182.38
2022-10-31T09:26:53.321Z,99173.94
2022-10-31T09:29:06.017Z,99173.94
2022-10-31T09:31:11.254Z,99167.75
2022-10-31T09:33:29.436Z,99165.66
2022-10-31T09:35:57.133Z,99167.84
2022-10-31T09:38:04.642Z,99172.50
2022-10-31T09:40:13.583Z,99169.72
2022-10-31T09:42:52.647Z,99163.50
2022-10-31T09:45:11.697Z,99161.66
2022-10-31T09:47:30.030Z,99154.41
2022-10-31T09:50:15.960Z,99158.75
2022-10-31T09:52:32.216Z,99151.56
2022-10-31T09:54:46.941Z,99150.06
2022-10-31T09:56:52.426Z,99154.25
2022-10-31T09:59:01.866Z,99153.78
2022-10-31T10:01:08.844Z,99144.16
2022-10-31T10:03:28.028Z,99143.94
2022-10-31T10:05:41.024Z,99148.63
2022-10-31T10:08:05.823Z,99146.63
2022-10-31T10:10:44.323Z,99144.47
2022-10-31T10:13:18.442Z,99147.16
2022-10-31T10:15:55.604Z,99143.75
2022-10-31T10:18:12.001Z,99144.09
2022-10-31T10:20:35.486Z,99148.97
2022-10-31T10:22:47.322Z,99141.84
2022-10-31T10:25:16.889Z,99139.28
2022-10-31T10:27:32.903Z,99127.34
2022-10-31T10:29:51.247Z,99135.81
2022-10-31T10:31:58.000Z,99133.53
2022-10-31T10:34:15.549Z,99128.13
2022-10-31T10:36:25.143Z,99132.16
2022-10-31T10:38:37.548Z,99130.59
2022-10-31T10:40:45.954Z,99124.63
2022-10-31T10:43:17.660Z,99118.22
2022-10-31T10:45:36.693Z,99118.09
2022-10-31T10:47:47.452Z,99118.94
2022-10-31T10:49:55.630Z,99107.81
2022-10-31T10:52:35.292Z,99114.56
2022-10-31T10:54:52.418Z,99106.34
2022-10-31T10:57:13.269Z,99107.75
2022-10-31T10:59:23.402Z,99110.00
2022-10-31T11:01:28.562Z,99101.09
2022-10-31T11:03:39.122Z,99093.81
2022-10-31T11:05:51.032Z,99088.44
2022-10-31T11:07:56.161Z,99091.28
2022-10-31T11:10:14.159Z,99083.06
2022-10-31T11:12:32.078Z,99075.56
2022-10-31T11:14:47.466Z,99072.13
2022-10-31T11:16:58.176Z,99075.03
2022-10-31T11:19:17.956Z,99068.97
2022-10-31T11:21:28.171Z,99065.44
2022-10-31T11:23:34.239Z,99065.22
2022-10-31T11:25:39.989Z,99067.03
2022-10-31T11:27:47.552Z,99060.00
2022-10-31T11:29:56.892Z,99060.06
2022-10-31T11:32:05.546Z,99051.44
2022-10-31T11:34:20.064Z,99053.81
2022-10-31T11:36:29.492Z,99055.28
2022-10-31T11:38:43.391Z,99054.31
2022-10-31T11:40:58.323Z,99054.00
2022-10-31T11:43:05.899Z,99052.50
2022-10-31T11:45:19.930Z,99042.47
2022-10-31T11:47:33.454Z,99043.66
2022-10-31T11:49:41.495Z,99034.97
2022-10-31T11:51:46.678Z,99031.53
2022-10-31T11:53:59.918Z,99036.44
2022-10-31T11:56:16.237Z,99025.81
2022-10-31T11:58:29.683Z,99030.09
2022-10-31T12:00:41.906Z,99028.97
2022-10-31T12:02:46.931Z,99029.25
2022-10-31T12:05:01.958Z,99020.50
2022-10-31T12:07:07.038Z,99025.59
2022-10-31T12:09:24.792Z,99019.56
2022-10-31T12:11:46.764Z,99018.34
2022-10-31T12:14:10.691Z,99017.38
2022-10-31T12:16:23.872Z,99013.03
2022-10-31T12:18:41.254Z,99013.66
2022-10-31T12:20:58.867Z,99008.91
2022-10-31T12:23:15.905Z,99009.81
2022-10-31T12:25:33.885Z,99001.25
2022-10-31T12:28:07.573Z,98995.66
2022-10-31T12:30:23.400Z,98993.84
2022-10-31T12:32:44.744Z,98990.94
2022-10-31T12:38:18.896Z,98982.94
2022-10-31T12:40:44.731Z,98981.16
2022-10-31T12:43:05.633Z,98979.66
2022-10-31T12:45:41.945Z,98973.19
2022-10-31T12:48:08.798Z,98959.38
2022-10-31T12:50:29.916Z,98962.88
2022-10-31T13:05:01.017Z,98947.00
2022-10-31T13:07:12.548Z,98938.25
2022-10-31T13:09:24.342Z,98940.63
2022-10-31T13:11:34.850Z,98940.53
2022-10-31T13:13:45.133Z,98936.44
2022-10-31T13:15:55.394Z,98934.94
2022-10-31T13:18:04.167Z,98926.88
2022-10-31T13:20:27.039Z,98925.31
2022-10-31T13:22:38.168Z,98920.59
2022-10-31T13:24:48.520Z,98920.41
2022-10-31T13:26:58.028Z,98923.50
2022-10-31T13:29:13.723Z,98913.22
2022-10-31T13:31:18.967Z,98912.94
2022-10-31T13:33:29.564Z,98914.75
2022-10-31T13:35:45.592Z,98911.25
2022-10-31T13:37:59.973Z,98913.75
2022-10-31T13:40:20.417Z,98908.38
2022-10-31T13:42:35.883Z,98904.50
2022-10-31T13:44:41.104Z,98898.75
2022-10-31T13:46:47.955Z,98899.38
2022-10-31T13:48:52.992Z,98895.03
2022-10-31T13:51:07.295Z,98890.56
2022-10-31T13:53:17.968Z,98890.19
2022-10-31T13:55:41.332Z,98884.56
2022-10-31T13:57:48.101Z,98888.84
2022-10-31T13:59:57.367Z,98886.75
2022-10-31T14:02:05.781Z,98887.75
2022-10-31T14:04:24.876Z,98878.09
2022-10-31T14:06:46.426Z,98881.34
2022-10-31T14:08:55.232Z,98873.59
2022-10-31T14:11:00.496Z,98880.09
2022-10-31T14:13:12.267Z,98877.81
2022-10-31T14:15:22.641Z,98869.78
2022-10-31T14:17:34.564Z,98877.06
2022-10-31T14:19:39.596Z,98873.59
2022-10-31T14:21:49.418Z,98868.88
2022-10-31T14:33:27.882Z,98856.19
2022-10-31T14:35:55.723Z,98848.69
2022-10-31T14:38:25.744Z,98848.94
2022-10-31T14:40:39.455Z,98842.63
2022-10-31T14:43:14.206Z,98841.47
2022-10-31T14:45:35.612Z,98852.31
2022-10-31T14:47:55.372Z,98846.91
2022-10-31T14:50:25.733Z,98834.41
2022-10-31T14:52:31.431Z,98834.72
2022-10-31T14:54:44.992Z,98835.22
2022-10-31T14:56:55.445Z,98832.06
2022-10-31T14:59:04.957Z,98832.72
2022-10-31T15:01:11.089Z,98829.66
2022-10-31T15:03:20.567Z,98828.25
2022-10-31T15:05:26.070Z,98831.81
2022-10-31T15:07:37.327Z,98826.00
2022-10-31T15:09:46.495Z,98825.41
2022-10-31T15:11:51.596Z,98831.63
2022-10-31T15:13:59.379Z,98832.56
2022-10-31T15:16:04.472Z,98824.22
2022-10-31T15:18:09.886Z,98827.81
2022-10-31T15:20:20.778Z,98830.72
2022-10-31T15:22:29.585Z,98818.53
2022-10-31T15:24:38.958Z,98818.16
2022-10-31T15:26:51.557Z,98808.59
2022-10-31T15:29:04.680Z,98809.06
2022-10-31T15:31:17.571Z,98809.56
2022-10-31T15:33:26.172Z,98806.69
2022-10-31T15:35:34.099Z,98811.72
2022-10-31T15:37:39.083Z,98805.28
2022-10-31T15:39:44.262Z,98798.09
2022-10-31T15:41:57.074Z,98800.91
2022-10-31T15:44:20.521Z,98799.69
2022-10-31T15:46:29.112Z,98797.97
2022-10-31T15:48:36.039Z,98795.97
2022-10-31T15:50:44.959Z,98802.13
2022-10-31T15:52:52.014Z,98792.19
2022-10-31T15:55:00.869Z,98796.63
2022-10-31T15:57:14.915Z,98798.06
2022-10-31T15:59:26.075Z,98786.66
2022-10-31T16:01:33.574Z,98777.56
2022-10-31T16:03:38.754Z,98777.81
2022-10-31T16:05:48.956Z,98772.09
2022-10-31T16:07:56.556Z,98778.31
2022-10-31T16:10:03.774Z,98772.75
2022-10-31T16:12:22.388Z,98758.69
2022-10-31T16:14:31.294Z,98774.00
2022-10-31T16:16:44.749Z,98775.72
2022-10-31T16:18:50.306Z,98774.25
2022-10-31T16:20:59.141Z,98778.63
2022-10-31T16:23:04.534Z,98780.50
2022-10-31T16:25:17.384Z,98781.59
2022-10-31T16:27:29.576Z,98783.59
2022-10-31T16:29:41.756Z,98778.91
2022-10-31T16:31:46.961Z,98789.59
2022-10-31T16:33:51.893Z,98784.69
2022-10-31T16:36:09.540Z,98783.13
2022-10-31T16:38:23.244Z,98782.53
2022-10-31T16:40:29.326Z,98785.28
2022-10-31T16:42:36.914Z,98792.44
2022-10-31T16:44:42.176Z,98795.28
2022-10-31T16:46:47.603Z,98793.06
2022-10-31T16:48:52.585Z,98795.91
2022-10-31T16:50:57.992Z,98788.72
2022-10-31T16:53:18.719Z,98800.81
2022-10-31T16:55:24.770Z,98804.53
2022-10-31T16:57:33.356Z,98793.97
2022-10-31T16:59:41.202Z,98796.88
2022-10-31T17:01:51.932Z,98790.44
2022-10-31T17:03:57.987Z,98789.00
2022-10-31T17:06:03.075Z,98789.28
2022-10-31T17:08:08.408Z,98793.91
2022-10-31T17:10:15.237Z,98801.78
2022-10-31T17:12:25.763Z,98798.66
2022-10-31T17:14:31.188Z,98799.75
2022-10-31T17:16:40.119Z,98805.84
2022-10-31T17:18:47.584Z,98804.28
2022-10-31T17:20:54.395Z,98806.81
2022-10-31T17:23:05.947Z,98799.06
2022-10-31T17:25:16.902Z,98798.34
2022-10-31T17:27:21.838Z,98801.00
2022-10-31T17:29:26.976Z,98797.78
2022-10-31T17:31:36.616Z,98805.22
2022-10-31T17:33:44.312Z,98797.66
2022-10-31T17:35:49.552Z,98796.91
2022-10-31T17:37:54.580Z,98795.53
2022-10-31T17:39:59.846Z,98793.91
2022-10-31T17:42:05.224Z,98790.50
2022-10-31T17:44:13.002Z,98789.53
2022-10-31T17:46:18.079Z,98794.47
2022-10-31T17:48:23.104Z,98791.91
2022-10-31T17:50:30.658Z,98784.41
2022-10-31T17:52:35.670Z,98770.84
2022-10-31T17:54:41.337Z,98760.69
2022-10-31T17:56:47.204Z,98760.78
2022-10-31T17:58:52.198Z,98754.97
2022-10-31T18:00:57.564Z,98757.88
2022-10-31T18:03:02.947Z,98749.50
2022-10-31T18:05:10.159Z,98742.63
2022-10-31T18:07:19.457Z,98744.13
2022-10-31T18:09:24.774Z,98732.06
2022-10-31T18:11:29.684Z,98733.72
2022-10-31T18:13:35.286Z,98725.31
2022-10-31T18:15:42.543Z,98717.03
2022-10-31T18:17:47.997Z,98721.59
2022-10-31T18:19:52.949Z,98714.31
2022-10-31T18:21:57.889Z,98710.09
2022-10-31T18:24:05.776Z,98699.09
2022-10-31T18:26:11.270Z,98693.53
2022-10-31T18:28:16.194Z,98677.28
2022-10-31T18:30:21.526Z,98658.38
2022-10-31T18:32:26.473Z,98631.16
2022-10-31T18:34:31.743Z,98629.09
2022-10-31T18:36:37.841Z,98621.13
2022-10-31T18:38:45.787Z,98614.19
2022-10-31T18:40:55.412Z,98614.03
2022-10-31T18:43:00.339Z,98612.13
2022-10-31T18:45:11.459Z,98614.84
2022-10-31T18:47:22.675Z,98631.06
2022-10-31T18:49:32.585Z,98630.53
2022-10-31T18:51:37.534Z,98623.97
2022-10-31T18:53:43.056Z,98618.91
2022-10-31T18:55:50.225Z,98618.25
2022-10-31T18:57:58.451Z,98612.44
2022-10-31T19:00:03.799Z,98607.09
2022-10-31T19:02:09.113Z,98609.94
2022-10-31T19:04:14.533Z,98617.78
2022-10-31T19:06:20.170Z,98628.75
2022-10-31T19:08:25.565Z,98647.28
2022-10-31T19:10:30.545Z,98672.91
2022-10-31T19:12:35.666Z,98673.00
2022-10-31T19:14:43.247Z,98672.91
2022-10-31T19:16:50.913Z,98656.59
2022-10-31T19:18:58.650Z,98636.09
2022-10-31T19:21:09.362Z,98624.09
2022-10-31T20:04:34.789Z,98610.97
2022-10-31T20:06:43.375Z,98608.88
2022-10-31T20:08:48.294Z,98604.81
2022-10-31T20:11:02.085Z,98595.78
2022-10-31T20:13:06.998Z,98599.16
2022-10-31T20:15:12.606Z,98599.28
2022-10-31T20:17:17.895Z,98599.16
2022-10-31T20:19:24.219Z,98599.31
2022-10-31T20:21:33.916Z,98597.13
2022-10-31T20:32:08.592Z,98580.25
2022-10-31T20:34:13.631Z,98571.28
2022-10-31T20:36:21.160Z,98577.38
2022-10-31T20:38:28.650Z,98583.56
2022-10-31T20:40:34.251Z,98577.91
2022-10-31T20:42:39.260Z,98574.75
2022-10-31T20:44:44.349Z,98573.91
2022-10-31T20:46:49.324Z,98564.88
2022-10-31T20:48:55.061Z,98571.78
2022-10-31T20:51:01.251Z,98564.59
2022-10-31T20:53:06.267Z,98567.09
2022-10-31T20:55:13.980Z,98565.66
2022-10-31T20:57:19.058Z,98581.06
2022-10-31T20:59:23.957Z,98583.94
2022-10-31T21:01:31.372Z,98584.94
2022-10-31T21:03:36.672Z,98591.53
2022-10-31T21:05:41.575Z,98594.91
2022-10-31T21:07:46.709Z,98603.31
2022-10-31T21:09:51.684Z,98606.88
2022-10-31T21:11:59.171Z,98623.25
2022-10-31T21:14:04.403Z,98629.59
2022-10-31T21:16:12.083Z,98641.09
2022-10-31T21:18:17.870Z,98635.88
2022-10-31T21:20:22.845Z,98644.03
2022-10-31T21:22:27.934Z,98641.34
2022-10-31T21:24:32.938Z,98648.03
2022-10-31T21:26:42.057Z,98663.09
2022-10-31T21:28:49.742Z,98657.63
2022-10-31T21:30:55.548Z,98656.56
2022-10-31T21:33:00.490Z,98653.34
2022-10-31T21:35:05.821Z,98659.47
2022-10-31T21:37:11.118Z,98658.00
2022-10-31T21:39:16.877Z,98669.75
2022-10-31T21:41:23.420Z,98660.38
2022-10-31T21:43:28.647Z,98657.06
2022-10-31T21:45:36.444Z,98652.06
2022-10-31T21:47:41.366Z,98643.06
2022-10-31T21:49:46.666Z,98653.34
2022-10-31T21:51:51.551Z,98653.47
2022-10-31T21:54:09.886Z,98659.09
2022-10-31T21:56:14.860Z,98650.75
2022-10-31T21:58:19.798Z,98642.19
2022-10-31T22:00:25.221Z,98644.03
2022-10-31T22:02:32.795Z,98648.25
2022-10-31T22:04:38.167Z,98639.03
2022-10-31T22:06:43.161Z,98637.34
2022-10-31T22:08:48.347Z,98642.28
2022-10-31T22:10:53.880Z,98644.91
2022-10-31T22:12:58.815Z,98647.59
2022-10-31T22:15:03.752Z,98642.41
2022-10-31T22:17:08.872Z,98648.16
2022-10-31T22:19:18.580Z,98652.47
2022-10-31T22:21:26.619Z,98650.78
2022-10-31T22:23:31.815Z,98655.97
2022-10-31T22:25:39.311Z,98652.56
2022-10-31T22:27:44.907Z,98654.31
2022-10-31T22:29:54.097Z,98646.97
2022-10-31T22:32:02.130Z,98644.38
2022-10-31T22:34:07.263Z,98639.47
2022-10-31T22:36:17.707Z,98641.25
2022-10-31T22:38:22.609Z,98641.16
2022-10-31T22:40:27.537Z,98627.91
2022-10-31T22:42:32.954Z,98642.22
2022-10-31T22:44:37.927Z,98636.34
2022-10-31T22:46:43.010Z,98636.31
2022-10-31T22:48:50.948Z,98637.97
2022-10-31T22:50:56.000Z,98636.22
2022-10-31T22:53:03.517Z,98638.75
2022-10-31T22:55:10.659Z,98629.41
2022-10-31T22:57:15.683Z,98625.97
2022-10-31T22:59:21.056Z,98631.00
2022-10-31T23:01:28.923Z,98623.31
2022-10-31T23:03:34.291Z,98618.28
2022-10-31T23:05:40.212Z,98625.84
2022-10-31T23:07:45.144Z,98615.72
2022-10-31T23:09:52.674Z,98618.09
2022-10-31T23:12:17.599Z,98629.75
2022-10-31T23:14:21.349Z,98612.28
2022-10-31T23:16:26.332Z,98607.19
2022-10-31T23:18:48.951Z,98609.59
2022-10-31T23:20:56.121Z,98613.72
2022-10-31T23:23:07.461Z,98606.38
2022-10-31T23:25:27.244Z,98619.88
2022-10-31T23:27:32.195Z,98616.50
2022-10-31T23:29:40.196Z,98610.56
2022-10-31T23:31:46.032Z,98608.88
2022-10-31T23:33:50.960Z,98608.84
2022-10-31T23:35:55.892Z,98602.91
2022-10-31T23:38:01.129Z,98609.94
2022-10-31T23:40:09.118Z,98606.63
2022-10-31T23:42:17.489Z,98609.25
2022-10-31T23:44:22.485Z,98615.09
2022-10-31T23:46:27.466Z,98610.09
2022-10-31T23:48:32.422Z,98597.59
2022-10-31T23:50:37.378Z,98596.06
2022-10-31T23:52:43.206Z,98596.19
2022-10-31T23:54:48.118Z,98594.59
2022-10-31T23:56:53.112Z,98592.81
2022-10-31T23:59:00.702Z,98582.78
